Time;durP1;ratioP1;P1;durP2;ratioP2;P2;SDS_P1;SDS_P2;PMS_P1;PMS_P2;Temp;Humidity;BMP_temperature;BMP_pressure;BME280_temperature;BME280_humidity;BME280_pressure;Samples;Min_cycle;Max_cycle;Signal;HPM_P1;HPM_P2
2023/09/02 00:02:28;;;;;;;;;7.00;6.00;;;;;22.06;100.00;98907.44;6228612;27;96605;-65
2023/09/02 00:05:32;;;;;;;;;6.00;6.00;;;;;21.94;100.00;98905.94;6271313;27;96721;-64
2023/09/02 00:08:35;;;;;;;;;7.25;7.25;;;;;21.86;100.00;98901.09;6266724;27;96562;-64
2023/09/02 00:11:38;;;;;;;;;8.20;7.20;;;;;21.67;100.00;98899.44;6262970;27;96341;-64
2023/09/02 00:14:42;;;;;;;;;7.00;7.00;;;;;21.60;100.00;98897.84;6241354;27;97216;-64
2023/09/02 00:17:47;;;;;;;;;9.75;8.75;;;;;21.56;100.00;98904.22;6287369;27;96803;-64
2023/09/02 00:20:50;;;;;;;;;9.00;8.00;;;;;21.52;100.00;98911.41;6258492;27;97641;-64
2023/09/02 00:24:01;;;;;;;;;9.00;9.00;;;;;21.40;100.00;98900.88;6267054;27;96700;-64
2023/09/02 00:27:05;;;;;;;;;8.00;8.00;;;;;21.38;100.00;98905.81;6265449;27;97428;-64
2023/09/02 00:30:10;;;;;;;;;10.00;8.80;;;;;21.40;100.00;98892.63;6267955;27;97012;-64
2023/09/02 00:33:13;;;;;;;;;6.20;6.20;;;;;21.43;100.00;98885.72;6267030;27;96864;-64
2023/09/02 00:36:17;;;;;;;;;8.00;7.00;;;;;21.45;100.00;98894.50;6286665;27;96714;-64
2023/09/02 00:39:20;;;;;;;;;9.00;9.00;;;;;21.41;100.00;98883.28;6287666;27;96307;-64
2023/09/02 00:42:27;;;;;;;;;8.00;6.60;;;;;21.35;100.00;98873.50;6287348;27;96267;-64
2023/09/02 00:45:31;;;;;;;;;9.00;9.00;;;;;21.35;100.00;98873.50;6287709;27;96455;-64
2023/09/02 00:48:35;;;;;;;;;7.50;7.25;;;;;21.37;100.00;98868.50;6284051;27;97016;-64
2023/09/02 00:51:39;;;;;;;;;6.60;6.60;;;;;21.39;100.00;98881.94;6250826;27;98595;-64
2023/09/02 00:54:42;;;;;;;;;7.00;7.00;;;;;21.31;100.00;98883.38;6263996;27;98862;-64
2023/09/02 00:57:46;;;;;;;;;8.00;8.00;;;;;21.27;100.00;98881.53;6251807;27;98598;-64
2023/09/02 01:00:50;;;;;;;;;8.00;7.00;;;;;21.36;100.00;98879.78;6259057;27;97083;-64
2023/09/02 01:03:54;;;;;;;;;6.40;5.40;;;;;21.24;100.00;98863.75;6283550;27;96386;-64
2023/09/02 01:06:57;;;;;;;;;6.00;6.00;;;;;21.42;100.00;98870.38;6289711;27;96539;-64
2023/09/02 01:10:02;;;;;;;;;5.00;5.00;;;;;21.50;100.00;98876.03;6277909;27;96351;-64
2023/09/02 01:13:07;;;;;;;;;8.00;7.60;;;;;21.44;100.00;98859.94;6290792;27;96542;-64
2023/09/02 01:16:11;;;;;;;;;6.00;5.25;;;;;21.57;100.00;98865.53;6270273;27;97541;-64
2023/09/02 01:19:18;;;;;;;;;6.00;6.00;;;;;21.54;100.00;98873.53;6291677;27;96458;-64
2023/09/02 01:22:39;;;;;;;;;6.00;6.00;;;;;21.59;100.00;98881.72;6278131;27;96657;-64
2023/09/02 01:26:12;;;;;;;;;5.60;5.60;;;;;21.66;100.00;98884.06;6253328;27;96693;-64
2023/09/02 01:29:21;;;;;;;;;7.00;6.40;;;;;21.71;100.00;98879.34;6272880;27;96237;-64
2023/09/02 01:32:29;;;;;;;;;6.00;6.00;;;;;21.67;100.00;98861.03;6254778;27;97099;-64
2023/09/02 01:35:35;;;;;;;;;4.40;4.40;;;;;21.58;100.00;98874.56;6295760;27;96711;-64
2023/09/02 01:38:39;;;;;;;;;5.00;5.00;;;;;21.54;100.00;98868.88;6278916;27;96277;-64
2023/09/02 01:41:43;;;;;;;;;7.00;7.00;;;;;21.57;100.00;98848.25;6295002;27;96835;-64
2023/09/02 01:44:49;;;;;;;;;7.40;7.40;;;;;21.52;100.00;98856.53;6292873;27;96819;-64
2023/09/02 01:47:52;;;;;;;;;4.60;4.60;;;;;21.50;100.00;98847.81;6292467;27;96368;-64
2023/09/02 01:50:58;;;;;;;;;7.00;7.00;;;;;21.51;100.00;98857.66;6292500;27;96356;-64
2023/09/02 01:54:02;;;;;;;;;4.60;4.00;;;;;21.47;100.00;98851.13;6293766;27;96925;-64
2023/09/02 01:57:05;;;;;;;;;5.00;5.00;;;;;21.45;100.00;98848.66;6292158;27;96443;-64
2023/09/02 02:00:11;;;;;;;;;5.00;5.00;;;;;21.46;100.00;98853.03;6292578;27;96369;-64
2023/09/02 02:03:21;;;;;;;;;6.67;6.67;;;;;21.46;100.00;98850.28;6269677;27;96505;-64
2023/09/02 02:06:27;;;;;;;;;5.75;5.75;;;;;21.40;100.00;98839.72;6223725;28;96730;-64
2023/09/02 02:09:34;;;;;;;;;5.00;5.00;;;;;21.37;100.00;98840.28;6222775;28;96399;-64
2023/09/02 02:12:41;;;;;;;;;4.00;4.00;;;;;21.35;100.00;98829.63;6240160;27;96721;-64
2023/09/02 02:15:46;;;;;;;;;5.00;5.00;;;;;21.31;100.00;98823.06;6222404;28;97044;-64
2023/09/02 02:18:49;;;;;;;;;5.40;5.40;;;;;21.28;100.00;98822.84;6221060;28;96952;-64
2023/09/02 02:21:53;;;;;;;;;4.00;4.00;;;;;21.25;100.00;98821.50;6263296;27;96485;-64
2023/09/02 02:24:56;;;;;;;;;6.80;5.80;;;;;21.30;100.00;98826.94;6266967;27;96923;-64
2023/09/02 02:27:59;;;;;;;;;5.00;5.00;;;;;21.30;100.00;98823.38;6268306;27;97142;-64
2023/09/02 02:31:04;;;;;;;;;6.00;6.00;;;;;21.31;100.00;98819.50;6267244;27;96461;-64
2023/09/02 02:34:08;;;;;;;;;7.00;6.00;;;;;21.20;100.00;98807.03;6268092;27;96326;-64
2023/09/02 02:37:11;;;;;;;;;8.00;7.00;;;;;21.21;100.00;98806.72;6268306;27;96901;-64
2023/09/02 02:40:15;;;;;;;;;6.50;6.50;;;;;21.10;100.00;98802.47;6268496;27;96339;-64
2023/09/02 02:43:24;;;;;;;;;5.80;5.80;;;;;21.01;100.00;98787.78;6267353;27;96858;-64
2023/09/02 02:46:28;;;;;;;;;6.00;6.00;;;;;21.05;100.00;98780.59;6267585;27;96280;-64
2023/09/02 02:49:31;;;;;;;;;7.00;6.00;;;;;20.98;100.00;98775.47;6249380;27;96271;-64
2023/09/02 02:52:36;;;;;;;;;5.00;5.00;;;;;21.00;100.00;98777.91;6265881;27;96423;-64
2023/09/02 02:55:41;;;;;;;;;5.50;5.00;;;;;21.09;100.00;98781.63;6266197;27;96443;-64
2023/09/02 02:58:46;;;;;;;;;5.40;4.40;;;;;21.21;100.00;98792.22;6240925;28;96244;-64
2023/09/02 03:01:52;;;;;;;;;5.00;5.00;;;;;21.24;100.00;98852.78;6228579;27;96669;-64
2023/09/02 03:04:55;;;;;;;;;5.00;4.25;;;;;21.36;100.00;98853.16;6252932;27;98392;-64
2023/09/02 03:07:58;;;;;;;;;4.00;3.00;;;;;21.39;100.00;98846.28;6275645;27;96339;-64
2023/09/02 03:11:03;;;;;;;;;3.00;2.75;;;;;21.44;100.00;98840.75;6275716;27;96423;-64
2023/09/02 03:14:08;;;;;;;;;4.60;4.00;;;;;21.49;100.00;98838.75;6274912;27;96317;-64
2023/09/02 03:17:13;;;;;;;;;4.00;4.00;;;;;21.55;100.00;98834.03;6274548;27;96692;-64
2023/09/02 03:20:17;;;;;;;;;5.00;5.00;;;;;21.61;100.00;98839.13;6288003;27;96286;-64
2023/09/02 03:23:21;;;;;;;;;4.40;4.40;;;;;21.61;100.00;98817.19;6291066;27;96457;-64
2023/09/02 03:26:26;;;;;;;;;4.20;4.20;;;;;21.44;100.00;98810.56;6288018;27;96896;-64
2023/09/02 03:29:31;;;;;;;;;6.50;6.00;;;;;21.56;100.00;98822.75;6270651;27;96684;-64
2023/09/02 03:32:38;;;;;;;;;5.40;4.60;;;;;21.63;100.00;98818.81;6286874;27;97315;-64
2023/09/02 03:35:41;;;;;;;;;4.00;4.00;;;;;21.58;100.00;98806.00;6290317;27;98372;-64
2023/09/02 03:38:45;;;;;;;;;4.40;4.40;;;;;21.64;100.00;98806.75;6272965;27;96311;-64
2023/09/02 03:41:48;;;;;;;;;4.00;4.00;;;;;21.64;100.00;98815.78;6264914;27;96757;-64
2023/09/02 03:44:51;;;;;;;;;4.20;4.00;;;;;21.65;100.00;98824.84;6272668;27;96731;-64
2023/09/02 03:47:56;;;;;;;;;6.00;5.00;;;;;21.67;100.00;98823.44;6273881;27;96576;-64
2023/09/02 03:51:03;;;;;;;;;3.25;3.25;;;;;21.77;100.00;98816.97;6290086;27;96698;-64
2023/09/02 03:54:07;;;;;;;;;6.25;5.25;;;;;21.81;100.00;98820.75;6254964;27;96763;-64
2023/09/02 03:57:11;;;;;;;;;7.00;6.00;;;;;21.81;100.00;98816.09;6271395;27;96453;-64
2023/09/02 04:00:16;;;;;;;;;4.00;3.00;;;;;21.80;100.00;98810.88;6272998;27;96339;-64
2023/09/02 04:03:21;;;;;;;;;3.00;3.00;;;;;21.70;100.00;98795.38;6289641;27;98135;-64
2023/09/02 04:06:24;;;;;;;;;2.25;2.25;;;;;21.82;100.00;98816.91;6271383;27;97068;-64
2023/09/02 04:09:28;;;;;;;;;3.00;3.00;;;;;21.77;100.00;98812.31;6290740;27;96879;-64
2023/09/02 04:12:33;;;;;;;;;2.00;2.00;;;;;21.75;100.00;98808.22;6271444;27;96836;-64
2023/09/02 04:15:37;;;;;;;;;4.00;3.00;;;;;21.74;100.00;98806.59;6271944;27;96270;-64
2023/09/02 04:18:42;;;;;;;;;2.40;2.40;;;;;21.63;100.00;98794.13;6271651;27;96918;-64
2023/09/02 04:21:48;;;;;;;;;4.00;3.40;;;;;21.70;100.00;98800.88;6254683;27;98392;-64
2023/09/02 04:24:52;;;;;;;;;4.00;4.00;;;;;21.74;100.00;98804.69;6272137;27;97069;-64
2023/09/02 04:27:55;;;;;;;;;3.00;2.75;;;;;21.74;100.00;98806.59;6292813;27;96428;-64
2023/09/02 04:30:59;;;;;;;;;4.00;3.00;;;;;21.68;100.00;98803.09;6273198;27;98497;-64
2023/09/02 04:34:07;;;;;;;;;5.80;5.00;;;;;21.70;100.00;98814.59;6269506;27;96424;-64
2023/09/02 04:37:10;;;;;;;;;4.00;4.00;;;;;21.67;100.00;98808.88;6266715;27;96403;-64
2023/09/02 04:40:15;;;;;;;;;5.60;5.00;;;;;21.69;100.00;98818.47;6247751;27;96724;-64
2023/09/02 04:43:18;;;;;;;;;6.00;5.00;;;;;21.72;100.00;98809.63;6267917;27;96374;-64
2023/09/02 04:46:24;;;;;;;;;4.00;4.00;;;;;21.80;100.00;98822.69;6269078;27;96482;-64
2023/09/02 04:49:29;;;;;;;;;4.00;4.00;;;;;21.86;100.00;98820.69;6268893;27;96261;-64
2023/09/02 04:52:35;;;;;;;;;3.00;3.00;;;;;21.94;100.00;98829.09;6270184;27;96128;-64
2023/09/02 04:55:39;;;;;;;;;4.80;4.20;;;;;22.04;100.00;98831.69;6276579;27;96667;-64
2023/09/02 04:58:45;;;;;;;;;4.80;4.00;;;;;22.14;100.00;98841.69;6278152;27;96449;-64
2023/09/02 05:01:51;;;;;;;;;4.00;4.00;;;;;22.24;100.00;98844.28;6278079;27;96796;-64
2023/09/02 05:04:55;;;;;;;;;6.00;6.00;;;;;22.30;100.00;98845.84;6295549;27;96350;-64
2023/09/02 05:07:59;;;;;;;;;5.00;5.00;;;;;22.37;100.00;98846.28;6276138;27;96610;-64
2023/09/02 05:11:04;;;;;;;;;3.00;3.00;;;;;22.42;100.00;98851.69;6276683;27;96365;-64
2023/09/02 05:14:07;;;;;;;;;4.60;4.60;;;;;22.44;100.00;98876.91;6276061;27;96427;-64
2023/09/02 05:17:10;;;;;;;;;6.50;5.00;;;;;22.48;100.00;98877.13;6294500;27;96315;-64
2023/09/02 05:20:15;;;;;;;;;5.00;4.75;;;;;22.48;100.00;98870.84;6275029;27;96086;-64
2023/09/02 05:23:18;;;;;;;;;4.00;4.00;;;;;22.49;100.00;98867.78;6276012;27;96276;-64
2023/09/02 05:26:22;;;;;;;;;6.40;6.00;;;;;22.50;100.00;98872.16;6275489;27;96624;-64
2023/09/02 05:29:25;;;;;;;;;5.25;5.25;;;;;22.53;100.00;98876.25;6293977;27;96450;-64
2023/09/02 05:32:28;;;;;;;;;4.20;4.20;;;;;22.54;100.00;98880.63;6276910;27;96434;-64
2023/09/02 05:35:33;;;;;;;;;4.00;4.00;;;;;22.52;100.00;98871.88;6277276;27;98684;-64
2023/09/02 05:38:36;;;;;;;;;5.00;4.00;;;;;22.54;100.00;98875.13;6279915;27;96330;-64
2023/09/02 05:41:39;;;;;;;;;3.00;3.00;;;;;22.46;100.00;98888.44;6276667;27;96649;-64
2023/09/02 05:44:43;;;;;;;;;5.00;4.00;;;;;22.42;100.00;98898.41;6296457;27;96237;-65
2023/09/02 05:47:46;;;;;;;;;4.00;3.40;;;;;22.36;100.00;98896.84;6295042;27;96234;-64
2023/09/02 05:50:51;;;;;;;;;3.00;3.00;;;;;22.34;100.00;98893.56;6293187;27;96345;-64
2023/09/02 05:53:54;;;;;;;;;4.00;4.00;;;;;22.35;100.00;98903.44;6294083;27;96390;-64
2023/09/02 05:56:57;;;;;;;;;4.60;4.00;;;;;22.36;100.00;98896.84;6274216;27;96671;-64
2023/09/02 06:00:03;;;;;;;;;4.60;4.60;;;;;22.40;100.00;98899.78;6290591;27;97589;-64
2023/09/02 06:03:14;;;;;;;;;4.60;4.00;;;;;22.41;100.00;98894.00;6293057;27;95995;-64
2023/09/02 06:06:19;;;;;;;;;4.00;4.00;;;;;22.38;100.00;98897.34;6271621;27;98601;-64
2023/09/02 06:09:26;;;;;;;;;4.00;3.80;;;;;22.37;100.00;98903.16;6287500;27;96462;-64
2023/09/02 06:12:30;;;;;;;;;5.25;5.25;;;;;22.36;100.00;98907.81;6290257;27;96372;-64
2023/09/02 06:15:36;;;;;;;;;6.00;6.00;;;;;22.35;100.00;98905.38;6290686;27;96399;-65
2023/09/02 06:18:39;;;;;;;;;5.00;5.00;;;;;22.34;100.00;98914.72;6272100;27;96354;-64
2023/09/02 06:21:45;;;;;;;;;4.00;4.00;;;;;22.33;100.00;98913.09;6264840;27;98775;-64
2023/09/02 06:24:48;;;;;;;;;4.00;4.00;;;;;22.34;100.00;98915.53;6271013;27;96341;-64
2023/09/02 06:27:51;;;;;;;;;4.00;3.00;;;;;22.38;100.00;98915.78;6289471;27;96477;-64
2023/09/02 06:30:55;;;;;;;;;4.00;4.00;;;;;22.42;100.00;98914.06;6269421;27;96900;-64
2023/09/02 06:33:58;;;;;;;;;4.00;4.00;;;;;22.48;100.00;98913.66;6290278;27;96372;-64
2023/09/02 06:37:03;;;;;;;;;3.60;3.00;;;;;22.54;100.00;98913.59;6270671;27;96408;-64
2023/09/02 06:40:07;;;;;;;;;3.60;3.60;;;;;22.63;100.00;98917.28;6291947;27;96202;-64
2023/09/02 06:43:11;;;;;;;;;4.00;4.00;;;;;22.68;100.00;98920.78;6289300;27;96491;-64
2023/09/02 06:46:16;;;;;;;;;4.00;3.50;;;;;22.73;100.00;98928.13;6273777;27;96675;-64
2023/09/02 06:49:19;;;;;;;;;7.00;7.00;;;;;22.81;100.00;98925.56;6293381;27;96406;-64
2023/09/02 06:52:24;;;;;;;;;7.00;7.00;;;;;22.89;100.00;98924.03;6290536;27;97495;-64
2023/09/02 06:55:27;;;;;;;;;5.60;5.00;;;;;22.95;100.00;98947.56;6290261;27;97393;-64
2023/09/02 06:58:30;;;;;;;;;4.60;4.60;;;;;22.98;100.00;98946.97;6291251;27;96918;-64
2023/09/02 07:01:33;;;;;;;;;3.50;3.00;;;;;23.03;100.00;98954.31;6292613;27;96392;-64
2023/09/02 07:04:36;;;;;;;;;4.00;3.00;;;;;23.07;100.00;98955.34;6291809;27;96770;-64
2023/09/02 07:07:41;;;;;;;;;3.00;3.00;;;;;23.14;100.00;98953.03;6274634;27;96290;-64
2023/09/02 07:10:44;;;;;;;;;4.00;3.60;;;;;23.22;100.00;98960.56;6292729;27;96376;-64
2023/09/02 07:13:47;;;;;;;;;5.00;5.00;;;;;23.19;100.00;98958.44;6273982;27;97220;-64
2023/09/02 07:16:51;;;;;;;;;5.00;4.20;;;;;23.18;100.00;98971.38;6273940;27;96304;-64
2023/09/02 07:19:55;;;;;;;;;6.60;5.60;;;;;23.12;100.00;98972.56;6291885;27;96303;-64
2023/09/02 07:22:59;;;;;;;;;5.00;4.00;;;;;23.14;100.00;98969.53;6273008;27;96492;-64
2023/09/02 07:26:04;;;;;;;;;6.00;6.00;;;;;23.14;100.00;98977.78;6291302;27;96378;-64
2023/09/02 07:29:07;;;;;;;;;5.40;5.40;;;;;23.07;100.00;98980.06;6290917;27;96367;-64
2023/09/02 07:32:10;;;;;;;;;5.00;5.00;;;;;22.99;100.00;98983.53;6268923;27;98483;-64
2023/09/02 07:35:14;;;;;;;;;5.60;5.60;;;;;22.95;100.00;98982.50;6266441;27;96819;-65
2023/09/02 07:38:18;;;;;;;;;4.40;4.40;;;;;22.96;100.00;98987.72;6268795;27;96733;-64
2023/09/02 07:41:21;;;;;;;;;4.00;4.00;;;;;23.08;100.00;98993.53;6285638;27;96341;-64
2023/09/02 07:44:24;;;;;;;;;5.00;4.00;;;;;23.16;100.00;98994.81;6282161;27;96199;-64
2023/09/02 07:47:28;;;;;;;;;4.00;4.00;;;;;23.24;100.00;99002.34;6267860;27;96538;-64
2023/09/02 07:50:32;;;;;;;;;4.00;4.00;;;;;23.27;100.00;98994.31;6265251;27;96592;-64
2023/09/02 07:53:36;;;;;;;;;5.40;5.40;;;;;23.30;100.00;99006.66;6286131;27;96519;-64
2023/09/02 07:56:39;;;;;;;;;4.00;4.00;;;;;23.42;100.00;99006.97;6287163;27;96662;-64
2023/09/02 07:59:42;;;;;;;;;5.00;5.00;;;;;23.48;100.00;99016.81;6279678;27;96861;-64
2023/09/02 08:02:46;;;;;;;;;3.60;3.60;;;;;23.49;100.00;99012.94;6268137;27;98712;-64
2023/09/02 08:05:49;;;;;;;;;5.00;5.00;;;;;23.56;100.00;99016.09;6269174;27;96582;-65
2023/09/02 08:08:54;;;;;;;;;4.40;4.00;;;;;23.60;100.00;99019.09;6287471;27;96444;-64
2023/09/02 08:11:58;;;;;;;;;5.20;5.00;;;;;23.68;100.00;99021.13;6287430;27;96624;-64
2023/09/02 08:15:01;;;;;;;;;8.00;7.00;;;;;23.87;100.00;99021.84;6267545;27;97668;-64
2023/09/02 08:18:04;;;;;;;;;10.40;9.40;;;;;24.12;100.00;99031.53;6290887;27;96536;-64
2023/09/02 08:21:09;;;;;;;;;6.00;5.00;;;;;24.32;100.00;99036.66;6289812;27;96602;-64
2023/09/02 08:24:13;;;;;;;;;6.00;5.00;;;;;24.54;100.00;99044.97;6289774;27;97063;-64
2023/09/02 08:27:17;;;;;;;;;6.80;6.00;;;;;24.70;100.00;99041.88;6289893;27;96461;-64
2023/09/02 08:30:20;;;;;;;;;10.40;10.00;;;;;24.66;100.00;99049.97;6289401;27;96498;-64
2023/09/02 08:33:23;;;;;;;;;9.00;8.00;;;;;24.58;100.00;99053.47;6271996;27;96730;-66
2023/09/02 08:36:26;;;;;;;;;8.00;7.00;;;;;24.50;100.00;99051.41;6263515;27;98430;-64
2023/09/02 08:39:34;;;;;;;;;11.00;10.00;;;;;24.36;100.00;99059.72;6266607;27;96952;-64
2023/09/02 08:42:40;;;;;;;;;11.40;10.00;;;;;24.32;100.00;99058.69;6274052;27;96616;-64
2023/09/02 08:45:46;;;;;;;;;7.80;7.00;;;;;24.27;100.00;99060.75;6271811;27;96761;-64
2023/09/02 08:48:50;;;;;;;;;9.00;9.00;;;;;24.24;100.00;99066.88;6272327;27;97386;-64
2023/09/02 08:51:54;;;;;;;;;11.80;10.00;;;;;24.35;100.00;99062.78;6289797;27;96380;-64
2023/09/02 08:54:59;;;;;;;;;9.00;9.00;;;;;24.63;100.00;99063.56;6290803;27;96390;-64
2023/09/02 08:58:04;;;;;;;;;6.00;5.00;;;;;24.88;100.00;99076.78;6287789;27;96447;-64
2023/09/02 09:01:07;;;;;;;;;7.00;6.00;;;;;25.05;100.00;99085.22;6252269;27;96769;-64
2023/09/02 09:04:15;;;;;;;;;8.60;8.00;;;;;25.12;100.00;99079.28;6289023;27;96281;-64
2023/09/02 09:07:18;;;;;;;;;7.00;7.00;;;;;25.08;100.00;99092.88;6287593;27;96527;-64
2023/09/02 09:10:24;;;;;;;;;7.00;6.00;;;;;25.00;100.00;99097.19;6270369;27;96932;-64
2023/09/02 09:13:29;;;;;;;;;4.40;4.40;;;;;24.96;100.00;99101.72;6287509;27;96562;-64
2023/09/02 09:16:37;;;;;;;;;6.00;6.00;;;;;24.94;100.00;99112.22;6270037;27;98547;-64
2023/09/02 09:19:41;;;;;;;;;9.00;7.80;;;;;24.84;100.00;99109.66;6271866;27;96310;-64
2023/09/02 09:22:44;;;;;;;;;6.00;6.00;;;;;24.76;100.00;99109.59;6290038;27;96400;-64
2023/09/02 09:25:52;;;;;;;;;6.00;6.00;;;;;24.68;100.00;99116.63;6272196;27;96420;-64
2023/09/02 09:28:58;;;;;;;;;8.00;7.60;;;;;24.60;100.00;99104.41;6288843;27;96193;-64
2023/09/02 09:32:09;;;;;;;;;7.00;6.40;;;;;24.75;100.00;99102.44;6277436;27;96526;-64
2023/09/02 09:35:22;;;;;;;;;9.25;8.50;;;;;25.03;100.00;99101.25;6290342;27;96367;-64
2023/09/02 09:38:37;;;;;;;;;6.00;6.00;;;;;25.44;100.00;99110.22;6290100;27;96335;-64
2023/09/02 09:41:48;;;;;;;;;7.00;7.00;;;;;25.98;100.00;99119.34;6290352;27;96435;-65
2023/09/02 09:44:53;;;;;;;;;7.50;7.00;;;;;26.58;100.00;99130.69;6290581;27;96349;-65
2023/09/02 09:47:59;;;;;;;;;6.40;5.60;;;;;26.92;100.00;99135.53;6289423;27;96596;-65
2023/09/02 09:51:07;;;;;;;;;6.40;6.40;;;;;27.08;100.00;99142.19;6289937;27;96424;-65
2023/09/02 09:54:10;;;;;;;;;7.20;7.20;;;;;27.10;100.00;99144.66;6289859;27;96380;-65
2023/09/02 09:57:17;;;;;;;;;6.20;6.20;;;;;27.08;100.00;99144.97;6289504;27;96645;-65
2023/09/02 10:00:20;;;;;;;;;6.00;6.00;;;;;27.10;100.00;99144.66;6289370;27;97436;-64
2023/09/02 10:03:30;;;;;;;;;8.00;7.40;;;;;27.25;100.00;99154.44;6256216;27;97369;-65
2023/09/02 10:06:37;;;;;;;;;7.00;7.00;;;;;27.42;100.00;99157.19;6262860;27;97018;-65
2023/09/02 10:09:42;;;;;;;;;5.60;5.00;;;;;27.65;100.00;99146.78;6279467;27;96752;-65
2023/09/02 10:12:53;;;;;;;;;4.00;4.00;;;;;28.00;100.00;99170.53;6285672;27;96480;-65
2023/09/02 10:15:59;;;;;;;;;7.00;6.00;;;;;28.24;100.00;99168.06;6287596;27;96404;-65
2023/09/02 10:19:04;;;;;;;;;4.00;4.00;;;;;28.55;100.00;99170.53;6287763;27;96889;-65
2023/09/02 10:22:08;;;;;;;;;8.00;8.00;;;;;28.93;100.00;99178.84;6285787;27;97232;-65
2023/09/02 10:25:18;;;;;;;;;3.25;3.25;;;;;29.22;100.00;99175.25;6280898;27;96314;-65
2023/09/02 10:28:32;;;;;;;;;5.40;5.00;;;;;29.41;100.00;99183.13;6287421;27;96345;-65
2023/09/02 10:31:39;;;;;;;;;6.00;6.00;;;;;29.64;100.00;99184.41;6286813;27;96778;-66
2023/09/02 10:34:48;;;;;;;;;5.25;5.00;;;;;29.88;100.00;99192.03;6286790;27;96487;-65
2023/09/02 10:37:55;;;;;;;;;6.00;6.00;;;;;29.80;100.00;99187.38;6287035;27;96613;-66
2023/09/02 10:41:07;;;;;;;;;8.00;7.00;;;;;29.68;100.00;99191.72;6265258;27;96489;-65
2023/09/02 10:44:13;;;;;;;;;7.80;6.80;;;;;29.54;100.00;99196.72;6288338;27;96662;-65
2023/09/02 10:47:16;;;;;;;;;7.80;7.00;;;;;29.34;100.00;99197.53;6271190;27;96364;-65
2023/09/02 10:50:22;;;;;;;;;7.00;6.00;;;;;29.14;100.00;99195.53;6265897;27;97497;-66
2023/09/02 10:53:58;;;;;;;;;7.00;6.20;;;;;28.96;100.00;99194.84;6266458;27;96437;-65
2023/09/02 10:57:14;;;;;;;;;5.50;5.50;;;;;28.80;100.00;99200.13;6285291;27;96860;-65
2023/09/02 11:00:21;;;;;;;;;5.00;4.33;;;;;28.80;100.00;99202.91;6288670;27;96394;-65
2023/09/02 11:03:46;;;;;;;;;5.60;5.60;;;;;28.81;100.00;99204.53;6362433;27;95523;-65
2023/09/02 11:07:25;;;;;;;;;7.75;6.75;;;;;28.95;100.00;99211.81;6328752;27;97028;-65
2023/09/02 11:10:53;;;;;;;;;5.00;5.00;;;;;29.22;100.00;99208.56;6316430;27;96906;-65
2023/09/02 11:14:19;;;;;;;;;7.00;6.20;;;;;29.49;100.00;99213.59;6317365;27;98634;-64
2023/09/02 11:17:28;;;;;;;;;5.40;5.40;;;;;30.20;100.00;99213.50;6330766;27;96399;-65
2023/09/02 11:20:49;;;;;;;;;6.00;5.00;;;;;30.81;100.00;99213.59;6316239;27;96668;-65
2023/09/02 11:23:53;;;;;;;;;4.00;4.00;;;;;31.16;100.00;99225.91;6301401;27;97975;-65
2023/09/02 11:26:58;;;;;;;;;6.00;6.00;;;;;31.11;100.00;99216.97;6319735;27;96638;-65
2023/09/02 11:30:11;;;;;;;;;5.00;4.00;;;;;30.86;100.00;99222.53;6334147;27;96481;-65
2023/09/02 11:33:19;;;;;;;;;5.20;5.20;;;;;30.84;100.00;99216.50;6333838;27;96614;-65
2023/09/02 11:36:26;;;;;;;;;4.50;4.50;;;;;30.99;100.00;99228.91;6316840;27;96576;-65
2023/09/02 11:39:32;;;;;;;;;4.20;4.20;;;;;30.98;100.00;99219.72;6308790;27;96575;-64
2023/09/02 11:42:35;;;;;;;;;5.00;5.00;;;;;31.02;100.00;99225.47;6324646;27;96298;-64
2023/09/02 11:45:40;;;;;;;;;5.40;5.40;;;;;31.15;100.00;99215.13;6308717;27;97019;-64
2023/09/02 11:48:43;;;;;;;;;4.00;4.00;;;;;31.25;100.00;99209.88;6328547;27;97564;-65
2023/09/02 11:51:48;;;;;;;;;5.00;5.00;;;;;31.26;100.00;99213.50;6308293;27;96453;-65
2023/09/02 11:54:51;;;;;;;;;4.00;4.00;;;;;31.17;100.00;99216.41;6309062;27;97046;-65
2023/09/02 11:57:54;;;;;;;;;5.50;5.50;;;;;31.09;100.00;99214.53;6289877;27;96894;-64
2023/09/02 12:00:57;;;;;;;;;6.60;6.00;;;;;31.31;100.00;99218.81;6289627;27;97555;-64
2023/09/02 12:04:01;;;;;;;;;6.00;6.00;;;;;31.47;100.00;99205.78;6271082;27;96744;-64
2023/09/02 12:07:06;;;;;;;;;4.00;4.00;;;;;31.98;100.00;99200.50;6202223;27;96317;-64
2023/09/02 12:10:11;;;;;;;;;2.50;2.50;;;;;32.43;100.00;99214.13;6268606;27;96901;-65
2023/09/02 12:13:15;;;;;;;;;3.50;3.00;;;;;32.74;100.00;99216.16;6198760;28;97204;-64
2023/09/02 12:16:19;;;;;;;;;5.25;5.00;;;;;32.62;100.00;99208.63;6253888;27;97256;-65
2023/09/02 12:19:25;;;;;;;;;4.50;4.50;;;;;32.55;100.00;99214.03;6256674;27;96951;-65
2023/09/02 12:22:30;;;;;;;;;6.00;5.00;;;;;32.64;100.00;99221.13;6261077;27;97569;-65
2023/09/02 12:25:35;;;;;;;;;5.00;5.00;;;;;32.73;100.00;99222.91;6275355;27;96855;-65
2023/09/02 12:28:47;;;;;;;;;3.60;3.60;;;;;32.60;100.00;99216.56;6268276;27;96720;-65
2023/09/02 12:31:52;;;;;;;;;4.00;4.00;;;;;32.53;100.00;99213.59;6266556;27;96391;-65
2023/09/02 12:34:55;;;;;;;;;4.00;3.75;;;;;32.54;100.00;99216.03;6250198;27;96781;-65
2023/09/02 12:38:03;;;;;;;;;2.20;2.20;;;;;32.53;100.00;99219.19;6196862;28;96398;-65
2023/09/02 12:41:07;;;;;;;;;4.40;4.40;;;;;32.75;100.00;99214.97;6201155;28;96996;-65
2023/09/02 12:44:13;;;;;;;;;6.00;5.40;;;;;33.10;100.00;99219.44;6199178;28;96424;-65
2023/09/02 12:47:20;;;;;;;;;6.00;5.20;;;;;33.00;100.00;99213.59;6195812;28;96575;-65
2023/09/02 12:50:24;;;;;;;;;6.00;5.00;;;;;32.90;100.00;99216.94;6194892;28;96557;-65
2023/09/02 12:53:29;;;;;;;;;5.00;5.00;;;;;32.61;100.00;99218.19;6262108;27;98645;-65
2023/09/02 12:56:32;;;;;;;;;4.00;4.00;;;;;32.29;100.00;99222.13;6273721;27;97606;-65
2023/09/02 12:59:35;;;;;;;;;5.00;4.75;;;;;32.26;100.00;99209.69;6210197;28;96225;-65
2023/09/02 13:02:39;;;;;;;;;7.00;7.00;;;;;32.41;100.00;99216.44;6207216;28;96413;-65
2023/09/02 13:05:42;;;;;;;;;5.00;5.00;;;;;32.19;100.00;99210.31;6270633;27;96599;-65
2023/09/02 13:08:47;;;;;;;;;8.00;8.00;;;;;32.05;100.00;99203.50;6192417;28;96318;-65
2023/09/02 13:11:50;;;;;;;;;5.00;5.00;;;;;31.79;100.00;99202.00;6262733;27;98561;-65
2023/09/02 13:14:53;;;;;;;;;6.00;6.00;;;;;32.05;100.00;99209.91;6264113;27;98416;-65
2023/09/02 13:17:57;;;;;;;;;5.00;5.00;;;;;32.23;100.00;99213.19;6192708;28;96435;-65
2023/09/02 13:21:01;;;;;;;;;6.00;6.00;;;;;32.43;100.00;99208.53;6197943;28;96396;-65
2023/09/02 13:24:06;;;;;;;;;6.00;5.33;;;;;32.58;100.00;99205.75;6267955;27;98417;-65
2023/09/02 13:27:09;;;;;;;;;5.00;5.00;;;;;32.75;100.00;99212.97;6196919;28;96397;-65
2023/09/02 13:30:13;;;;;;;;;5.60;5.60;;;;;32.86;100.00;99202.88;6193016;28;96408;-65
2023/09/02 13:33:17;;;;;;;;;5.00;5.00;;;;;33.01;100.00;99209.63;6264583;27;98662;-65
2023/09/02 13:36:20;;;;;;;;;4.00;3.00;;;;;33.25;100.00;99211.41;6200430;28;96574;-65
2023/09/02 13:39:25;;;;;;;;;4.00;4.00;;;;;33.38;100.00;99201.75;6265006;27;96677;-65
2023/09/02 13:42:29;;;;;;;;;5.00;4.60;;;;;33.28;100.00;99205.13;6270843;27;96743;-66
2023/09/02 13:45:36;;;;;;;;;6.00;6.00;;;;;33.29;100.00;99213.13;6196528;28;97629;-65
2023/09/02 13:48:40;;;;;;;;;6.00;6.00;;;;;33.22;100.00;99209.34;6246994;27;98676;-67
2023/09/02 13:51:46;;;;;;;;;7.00;6.00;;;;;32.73;100.00;99209.75;6258944;27;96372;-67
2023/09/02 13:54:51;;;;;;;;;7.00;5.50;;;;;32.38;100.00;99201.25;6196251;28;96391;-65
2023/09/02 13:57:54;;;;;;;;;6.00;6.00;;;;;32.44;100.00;99210.97;6262459;27;96885;-67
2023/09/02 14:00:57;;;;;;;;;9.00;9.00;;;;;32.36;100.00;99211.94;6268085;27;96735;-66
2023/09/02 14:04:02;;;;;;;;;8.00;7.50;;;;;32.10;100.00;99214.41;6270047;27;96863;-66
2023/09/02 14:07:06;;;;;;;;;7.00;7.00;;;;;31.97;100.00;99213.63;6261489;27;96778;-66
2023/09/02 14:10:12;;;;;;;;;5.33;5.33;;;;;31.96;100.00;99214.78;6240994;27;96912;-65
2023/09/02 14:13:16;;;;;;;;;6.80;6.80;;;;;31.84;100.00;99217.66;6270994;27;97277;-65
2023/09/02 14:16:21;;;;;;;;;9.50;9.00;;;;;32.03;100.00;99219.78;6195164;27;96614;-65
2023/09/02 14:19:24;;;;;;;;;6.00;6.00;;;;;31.92;100.00;99211.09;6270446;27;98166;-65
2023/09/02 14:22:28;;;;;;;;;8.00;7.75;;;;;31.97;100.00;99210.03;6263179;27;96878;-65